Flight Track Log - Related Links

Times and Time Zones

All times are in EDT time to prevent confusion due to time zone crossing. See the UAL4335 flight status page for this flight to view local times or setup timezone preferences in your user account.


Time Position Orientation Groundspeed Altitude Reporting Facility
EDT Latitude Longitude Course Direction KTS MPH feet Rate Location/Type
Sat 09:15:01 AM 41.9167 -87.9000 166° South 191 220 3,400  Level Chicago TRACON
Sat 09:16:01 AM 41.8667 -87.8833 166° South 224 258 5,700 2,000 Climbing Chicago TRACON
Sat 09:16:49 AM 41.8239 -87.8547 154° Southeast 240 276 7,000 2,182 Climbing Chicago Center
Sat 09:17:51 AM 41.7519 -87.8028 152° Southeast 282 325 9,700 2,780 Climbing Chicago Center
Sat 09:18:52 AM 41.6622 -87.7392 152° Southeast 302 348 12,700 2,098 Climbing Chicago Center
Sat 09:19:54 AM 41.5792 -87.6811 152° Southeast 330 380 14,000 1,268 Climbing Chicago Center
Sat 09:20:55 AM 41.4867 -87.6161 152° Southeast 367 422 15,300 1,463 Climbing Chicago Center
Sat 09:21:57 AM 41.3881 -87.5683 160° South 381 438 17,000 1,707 Climbing Chicago Center
Sat 09:22:58 AM 41.2822 -87.5483 172° South 380 437 18,800 1,561 Climbing Chicago Center
Sat 09:24:00 AM 41.1783 -87.5131 166° South 391 450 20,200 1,366 Climbing Chicago Center
Sat 09:25:01 AM 41.0850 -87.4325 147° Southeast 399 459 21,600 1,317 Climbing Chicago Center
Sat 09:26:03 AM 40.9881 -87.3511 148° Southeast 410 472 22,900 1,306 Climbing Chicago Center
Sat 09:27:05 AM 40.8911 -87.2694 148° Southeast 413 475 24,300 1,024 Climbing Chicago Center
Sat 09:28:06 AM 40.7725 -87.1675 147° Southeast 425 489 25,000 341 Climbing Chicago Center
Sat 09:29:08 AM 40.6750 -87.0864 148° Southeast 443 510 25,000 -146 Level Chicago Center
Sat 09:30:09 AM 40.5667 -86.9936 147° Southeast 462 532 24,700 -585 Descending Chicago Center
Sat 09:31:11 AM 40.4569 -86.9033 148° Southeast 465 535 23,800 -823 Descending Chicago Center
Sat 09:32:13 AM 40.3544 -86.8172 147° Southeast 444 511 23,000 -390 Descending Chicago Center
Sat 09:33:14 AM 40.2342 -86.7153 147° Southeast 431 496 23,000  Level Chicago Center
Sat 09:34:16 AM 40.1294 -86.6297 148° Southeast 443 510 23,000  Level Chicago Center
Sat 09:35:14 AM 40.0225 -86.5400 147° Southeast 449 517 23,000  Level Indianapolis Center
Sat 09:36:16 AM 39.9169 -86.4522 147° Southeast 452 520 23,000 -829 Level Indianapolis Center
Sat 09:37:17 AM 39.8200 -86.3597 144° Southeast 435 501 21,300 -2,000 Descending Indianapolis Center
Sat 09:38:19 AM 39.7639 -86.2175 117° Southeast 424 488 18,900 -2,390 Descending Indianapolis Center
Sat 09:39:20 AM 39.7172 -86.0781 113° Southeast 416 479 16,400 -2,195 Descending Indianapolis Center
Sat 09:40:22 AM 39.6725 -85.9450 114° Southeast 406 467 14,400 -1,171 Descending Indianapolis Center
Sat 09:41:23 AM 39.6292 -85.8164 114° Southeast 394 453 14,000 -829 Descending Indianapolis Center
Sat 09:42:25 AM 39.5856 -85.6875 114° Southeast 392 451 12,700 -1,366 Descending Indianapolis Center
Sat 09:43:26 AM 39.5422 -85.5594 114° Southeast 390 449 11,200 -878 Descending Indianapolis Center
Sat 09:44:28 AM 39.4936 -85.4383 117° Southeast 383 441 10,900 -146 Descending Indianapolis Center
Sat 09:45:29 AM 39.4200 -85.3061 126° Southeast 378 435 10,900 -488 Level Indianapolis Center
Sat 09:46:31 AM 39.4172 -85.1900 92° East 329 379 9,900 -1,403 Descending Indianapolis Center
Sat 09:47:33 AM 39.4203 -85.0847 88° East 299 344 8,000 -1,854 Descending Indianapolis Center
Sat 09:48:34 AM 39.4211 -84.9819 89° East 291 335 6,100 -1,463 Descending Indianapolis Center
Sat 09:49:36 AM 39.4233 -84.8717 88° East 280 322 5,000 -532 Descending Indianapolis Center
Sat 09:50:38 AM 39.4089 -84.7756 101° East 286 329 5,000 -244 Level Indianapolis Center
Sat 09:51:39 AM 39.3467 -84.7186 145° Southeast 287 330 4,500 -732 Descending Indianapolis Center
Sat 09:52:41 AM 39.2908 -84.6681 145° Southeast 280 322 3,500 -584 Descending Indianapolis Center
Sat 09:54:13 AM 39.2000 -84.6667 179° South 199 229 3,000 -434 Descending Cincinnati TRACON
Sat 09:55:13 AM 39.1333 -84.6667 180° South 186 214 2,400 -714 Descending Cincinnati TRACON
Sat 09:56:19 AM 39.1000 -84.6667 180° South 133 153 1,500 -818 Descending Cincinnati TRACON

Login

Don't have an account? Register now (free) for customized features, flight alerts, and more!